createdAt,value
2022-12-18T00:00:25.837Z,1018.76
2022-12-18T00:01:25.899Z,1018.72
2022-12-18T00:02:25.798Z,1018.71
2022-12-18T00:03:25.993Z,1018.64
2022-12-18T00:04:25.802Z,1018.66
2022-12-18T00:05:25.855Z,1018.74
2022-12-18T00:06:25.759Z,1018.68
2022-12-18T00:07:25.743Z,1018.71
2022-12-18T00:08:25.763Z,1018.68
2022-12-18T00:09:25.723Z,1018.72
2022-12-18T00:10:26.724Z,1018.69
2022-12-18T00:11:25.760Z,1018.72
2022-12-18T00:12:25.690Z,1018.72
2022-12-18T00:13:25.718Z,1018.72
2022-12-18T00:14:25.680Z,1018.78
2022-12-18T00:15:25.658Z,1018.72
2022-12-18T00:16:25.710Z,1018.75
2022-12-18T00:17:25.656Z,1018.76
2022-12-18T00:18:25.669Z,1018.76
2022-12-18T00:19:25.639Z,1018.68
2022-12-18T00:20:25.605Z,1018.70
2022-12-18T00:21:25.626Z,1018.80
2022-12-18T00:22:25.585Z,1018.80
2022-12-18T00:23:25.593Z,1018.74
2022-12-18T00:24:25.644Z,1018.78
2022-12-18T00:25:25.557Z,1018.79
2022-12-18T00:26:25.549Z,1018.73
2022-12-18T00:27:25.561Z,1018.80
2022-12-18T00:28:25.523Z,1018.75
2022-12-18T00:29:25.545Z,1018.71
2022-12-18T00:30:25.574Z,1018.69
2022-12-18T00:31:25.584Z,1018.70
2022-12-18T00:32:25.495Z,1018.70
2022-12-18T00:33:25.497Z,1018.64
2022-12-18T00:34:25.460Z,1018.65
2022-12-18T00:35:25.454Z,1018.65
2022-12-18T00:36:25.435Z,1018.55
2022-12-18T00:37:25.527Z,1018.59
2022-12-18T00:38:25.416Z,1018.62
2022-12-18T00:39:25.411Z,1018.60
2022-12-18T00:40:25.430Z,1018.58
2022-12-18T00:41:25.398Z,1018.67
2022-12-18T00:42:25.378Z,1018.62
2022-12-18T00:43:25.429Z,1018.63
2022-12-18T00:44:25.356Z,1018.62
2022-12-18T00:45:25.422Z,1018.69
2022-12-18T00:46:25.348Z,1018.67
2022-12-18T00:47:25.349Z,1018.75
2022-12-18T00:48:25.325Z,1018.68
2022-12-18T00:49:25.395Z,1018.75
2022-12-18T00:50:25.292Z,1018.76
2022-12-18T00:51:25.282Z,1018.73
2022-12-18T00:52:25.304Z,1018.76
2022-12-18T00:53:25.264Z,1018.77
2022-12-18T00:54:25.277Z,1018.77
2022-12-18T00:55:25.311Z,1018.78
2022-12-18T00:56:25.228Z,1018.79
2022-12-18T00:57:25.217Z,1018.82
2022-12-18T00:58:25.244Z,1018.78
2022-12-18T00:59:25.200Z,1018.74
2022-12-18T01:00:25.216Z,1018.73
2022-12-18T01:01:25.348Z,1018.73
2022-12-18T01:02:25.315Z,1018.74
2022-12-18T01:03:25.151Z,1018.74
2022-12-18T01:04:25.181Z,1018.78
2022-12-18T01:05:25.138Z,1018.80
2022-12-18T01:06:25.118Z,1018.76
2022-12-18T01:07:25.178Z,1018.75
2022-12-18T01:08:25.102Z,1018.70
2022-12-18T01:09:25.118Z,1018.72
2022-12-18T01:10:25.086Z,1018.72
2022-12-18T01:11:25.076Z,1018.79
2022-12-18T01:12:25.058Z,1018.76
2022-12-18T01:13:25.114Z,1018.82
2022-12-18T01:14:25.051Z,1018.86
2022-12-18T01:15:25.046Z,1018.83
2022-12-18T01:16:25.119Z,1018.82
2022-12-18T01:17:25.020Z,1018.89
2022-12-18T01:18:24.992Z,1018.86
2022-12-18T01:19:25.005Z,1018.85
2022-12-18T01:20:24.993Z,1018.84
2022-12-18T01:21:24.983Z,1018.88
2022-12-18T01:22:24.990Z,1018.89
2022-12-18T01:23:24.949Z,1018.89
2022-12-18T01:24:24.937Z,1018.90
2022-12-18T01:25:24.917Z,1018.89
2022-12-18T01:26:24.914Z,1018.94
2022-12-18T01:27:24.895Z,1018.92
2022-12-18T01:28:24.904Z,1019.04
2022-12-18T01:29:24.887Z,1018.93
2022-12-18T01:30:24.875Z,1018.94
2022-12-18T01:31:24.954Z,1018.97
2022-12-18T01:32:24.890Z,1019.01
2022-12-18T01:33:24.867Z,1019.01
2022-12-18T01:34:24.829Z,1018.98
2022-12-18T01:35:24.849Z,1018.99
2022-12-18T01:36:24.830Z,1019.00
2022-12-18T01:37:24.790Z,1019.06
2022-12-18T01:38:24.787Z,1019.08
2022-12-18T01:39:24.768Z,1019.04
2022-12-18T01:40:24.806Z,1019.04
2022-12-18T01:41:24.747Z,1019.13
2022-12-18T01:42:24.749Z,1019.19
2022-12-18T01:43:24.728Z,1019.21
2022-12-18T01:44:24.713Z,1019.18
2022-12-18T01:45:24.706Z,1019.16
2022-12-18T01:46:24.712Z,1019.14
2022-12-18T01:47:24.684Z,1019.20
2022-12-18T01:48:24.682Z,1019.12
2022-12-18T01:49:24.664Z,1019.22
2022-12-18T01:50:24.680Z,1019.18
2022-12-18T01:51:24.670Z,1019.18
2022-12-18T01:52:24.656Z,1019.21
2022-12-18T01:53:24.618Z,1019.23
2022-12-18T01:54:24.620Z,1019.26
2022-12-18T01:55:24.645Z,1019.25
2022-12-18T01:56:24.587Z,1019.29
2022-12-18T01:57:24.577Z,1019.30
2022-12-18T01:58:24.591Z,1019.26
2022-12-18T01:59:24.554Z,1019.25
2022-12-18T02:00:24.593Z,1019.27
2022-12-18T02:01:24.701Z,1019.20
2022-12-18T02:02:24.633Z,1019.26
2022-12-18T02:03:24.619Z,1019.18
2022-12-18T02:04:24.508Z,1019.21
2022-12-18T02:05:24.498Z,1019.26
2022-12-18T02:06:24.538Z,1019.22
2022-12-18T02:07:24.507Z,1019.21
2022-12-18T02:08:24.464Z,1019.23
2022-12-18T02:09:24.468Z,1019.25
2022-12-18T02:10:24.453Z,1019.29
2022-12-18T02:11:24.449Z,1019.28
2022-12-18T02:12:24.428Z,1019.31
2022-12-18T02:13:24.524Z,1019.28
2022-12-18T02:14:24.426Z,1019.23
2022-12-18T02:15:24.384Z,1019.31
2022-12-18T02:16:24.453Z,1019.25
2022-12-18T02:17:24.364Z,1019.28
2022-12-18T02:18:24.415Z,1019.34
2022-12-18T02:19:24.383Z,1019.29
2022-12-18T02:20:24.330Z,1019.35
2022-12-18T02:21:24.358Z,1019.29
2022-12-18T02:22:24.337Z,1019.35
2022-12-18T02:23:24.300Z,1019.37
2022-12-18T02:24:24.305Z,1019.35
2022-12-18T02:25:24.278Z,1019.40
2022-12-18T02:26:24.272Z,1019.28
2022-12-18T02:27:24.258Z,1019.34
2022-12-18T02:28:24.265Z,1019.27
2022-12-18T02:29:24.350Z,1019.25
2022-12-18T02:30:24.283Z,1019.27
2022-12-18T02:31:24.220Z,1019.27
2022-12-18T02:32:24.203Z,1019.21
2022-12-18T02:33:24.241Z,1019.26
2022-12-18T02:34:24.191Z,1019.26
2022-12-18T02:35:24.173Z,1019.26
2022-12-18T02:36:24.176Z,1019.28
2022-12-18T02:37:24.153Z,1019.22
2022-12-18T02:38:24.141Z,1019.26
2022-12-18T02:39:24.150Z,1019.25
2022-12-18T02:40:24.148Z,1019.24
2022-12-18T02:41:24.146Z,1019.24
2022-12-18T02:42:24.151Z,1019.24
2022-12-18T02:43:24.091Z,1019.23
2022-12-18T02:44:24.079Z,1019.28
2022-12-18T02:45:24.189Z,1019.24
2022-12-18T02:46:24.086Z,1019.23
2022-12-18T02:47:24.124Z,1019.23
2022-12-18T02:48:24.039Z,1019.25
2022-12-18T02:49:24.028Z,1019.27
2022-12-18T02:50:24.073Z,1019.27
2022-12-18T02:51:24.006Z,1019.31
2022-12-18T02:52:24.008Z,1019.24
2022-12-18T02:53:24.023Z,1019.22
2022-12-18T02:54:23.972Z,1019.24
2022-12-18T02:55:23.964Z,1019.30
2022-12-18T02:56:23.969Z,1019.25
2022-12-18T02:57:23.943Z,1019.33
2022-12-18T02:58:23.971Z,1019.30
2022-12-18T02:59:23.920Z,1019.33
2022-12-18T03:00:23.908Z,1019.39
2022-12-18T03:01:24.223Z,1019.34
2022-12-18T03:02:24.096Z,1019.33
2022-12-18T03:03:23.923Z,1019.34
2022-12-18T03:04:23.980Z,1019.35
2022-12-18T03:05:23.862Z,1019.32
2022-12-18T03:06:23.871Z,1019.33
2022-12-18T03:07:23.856Z,1019.33
2022-12-18T03:08:23.826Z,1019.32
2022-12-18T03:09:23.854Z,1019.28
2022-12-18T03:10:23.855Z,1019.31
2022-12-18T03:11:23.793Z,1019.29
2022-12-18T03:12:23.787Z,1019.33
2022-12-18T03:13:23.775Z,1019.40
2022-12-18T03:14:23.790Z,1019.34
2022-12-18T03:15:23.754Z,1019.39
2022-12-18T03:16:23.840Z,1019.45
2022-12-18T03:17:23.842Z,1019.39
2022-12-18T03:18:23.722Z,1019.44
2022-12-18T03:19:23.711Z,1019.47
2022-12-18T03:20:23.701Z,1019.47
2022-12-18T03:21:23.691Z,1019.43
2022-12-18T03:22:23.724Z,1019.46
2022-12-18T03:23:26.225Z,1019.55
2022-12-18T03:24:23.716Z,1019.50
2022-12-18T03:25:23.653Z,1019.50
2022-12-18T03:26:23.641Z,1019.53
2022-12-18T03:27:23.663Z,1019.59
2022-12-18T03:28:23.689Z,1019.59
2022-12-18T03:29:23.606Z,1019.57
2022-12-18T03:30:23.622Z,1019.56
2022-12-18T03:31:23.729Z,1019.56
2022-12-18T03:32:23.574Z,1019.61
2022-12-18T03:33:23.729Z,1019.55
2022-12-18T03:34:23.602Z,1019.59
2022-12-18T03:35:23.542Z,1019.49
2022-12-18T03:36:23.532Z,1019.53
2022-12-18T03:37:23.523Z,1019.52
2022-12-18T03:38:23.543Z,1019.53
2022-12-18T03:39:23.554Z,1019.56
2022-12-18T03:40:23.523Z,1019.55
2022-12-18T03:41:23.516Z,1019.63
2022-12-18T03:42:23.470Z,1019.64
2022-12-18T03:43:23.459Z,1019.54
2022-12-18T03:44:23.448Z,1019.61
2022-12-18T03:45:23.439Z,1019.65
2022-12-18T03:46:23.540Z,1019.62
2022-12-18T03:47:23.416Z,1019.54
2022-12-18T03:48:23.405Z,1019.58
2022-12-18T03:49:23.511Z,1019.52
2022-12-18T03:50:23.387Z,1019.48
2022-12-18T03:51:23.378Z,1019.46
2022-12-18T03:52:23.426Z,1019.43
2022-12-18T03:53:23.356Z,1019.39
2022-12-18T03:54:23.342Z,1019.43
2022-12-18T03:55:23.335Z,1019.44
2022-12-18T03:56:23.321Z,1019.41
2022-12-18T03:57:23.314Z,1019.47
2022-12-18T03:58:23.343Z,1019.44
2022-12-18T03:59:23.290Z,1019.46
2022-12-18T04:00:23.282Z,1019.54
2022-12-18T04:01:23.353Z,1019.49
2022-12-18T04:02:23.397Z,1019.49
2022-12-18T04:03:26.443Z,1019.56
2022-12-18T04:04:23.287Z,1019.47
2022-12-18T04:05:23.352Z,1019.55
2022-12-18T04:06:23.217Z,1019.48
2022-12-18T04:07:23.243Z,1019.54
2022-12-18T04:08:23.194Z,1019.50
2022-12-18T04:09:23.187Z,1019.45
2022-12-18T04:10:23.242Z,1019.50
2022-12-18T04:11:23.163Z,1019.50
2022-12-18T04:12:23.153Z,1019.52
2022-12-18T04:13:23.144Z,1019.58
2022-12-18T04:14:23.134Z,1019.53
2022-12-18T04:15:23.125Z,1019.47
2022-12-18T04:16:23.154Z,1019.49
2022-12-18T04:17:23.131Z,1019.49
2022-12-18T04:18:23.094Z,1019.46
2022-12-18T04:19:23.085Z,1019.50
2022-12-18T04:20:23.075Z,1019.41
2022-12-18T04:21:23.189Z,1019.45
2022-12-18T04:22:23.098Z,1019.52
2022-12-18T04:23:23.039Z,1019.44
2022-12-18T04:24:23.054Z,1019.44
2022-12-18T04:25:23.023Z,1019.41
2022-12-18T04:26:23.005Z,1019.39
2022-12-18T04:27:22.998Z,1019.35
2022-12-18T04:28:23.023Z,1019.40
2022-12-18T04:29:23.019Z,1019.36
2022-12-18T04:30:22.967Z,1019.38
2022-12-18T04:31:23.029Z,1019.41
2022-12-18T04:32:22.942Z,1019.46
2022-12-18T04:33:22.935Z,1019.49
2022-12-18T04:34:22.989Z,1019.47
2022-12-18T04:35:22.913Z,1019.47
2022-12-18T04:36:22.902Z,1019.40
2022-12-18T04:37:23.019Z,1019.40
2022-12-18T04:38:22.883Z,1019.37
2022-12-18T04:39:22.874Z,1019.40
2022-12-18T04:40:22.894Z,1019.37
2022-12-18T04:41:22.850Z,1019.39
2022-12-18T04:42:22.844Z,1019.43
2022-12-18T04:43:22.930Z,1019.43
2022-12-18T04:44:22.817Z,1019.51
2022-12-18T04:45:22.844Z,1019.41
2022-12-18T04:46:22.901Z,1019.41
2022-12-18T04:47:22.787Z,1019.37
2022-12-18T04:48:22.801Z,1019.38
2022-12-18T04:49:22.770Z,1019.34
2022-12-18T04:50:22.754Z,1019.41
2022-12-18T04:51:26.478Z,1019.37
2022-12-18T04:52:23.470Z,1019.35
2022-12-18T04:53:22.873Z,1019.41
2022-12-18T04:54:22.739Z,1019.42
2022-12-18T04:55:22.704Z,1019.40
2022-12-18T04:56:22.730Z,1019.35
2022-12-18T04:57:22.683Z,1019.40
2022-12-18T04:58:22.694Z,1019.44
2022-12-18T04:59:22.685Z,1019.43
2022-12-18T05:00:22.692Z,1019.41
2022-12-18T05:01:22.828Z,1019.40
2022-12-18T05:02:22.797Z,1019.36
2022-12-18T05:03:22.648Z,1019.39
2022-12-18T05:04:22.630Z,1019.43
2022-12-18T05:05:22.597Z,1019.40
2022-12-18T05:06:22.604Z,1019.37
2022-12-18T05:07:22.605Z,1019.40
2022-12-18T05:08:22.564Z,1019.45
2022-12-18T05:09:22.674Z,1019.35
2022-12-18T05:10:22.569Z,1019.41
2022-12-18T05:11:22.560Z,1019.38
2022-12-18T05:12:22.523Z,1019.43
2022-12-18T05:13:22.518Z,1019.37
2022-12-18T05:14:22.535Z,1019.40
2022-12-18T05:15:22.510Z,1019.44
2022-12-18T05:16:22.546Z,1019.44
2022-12-18T05:17:22.471Z,1019.47
2022-12-18T05:18:22.458Z,1019.41
2022-12-18T05:19:22.455Z,1019.44
2022-12-18T05:20:22.467Z,1019.46
2022-12-18T05:21:22.431Z,1019.41
2022-12-18T05:22:22.456Z,1019.42
2022-12-18T05:23:22.407Z,1019.47
2022-12-18T05:24:22.397Z,1019.44
2022-12-18T05:25:22.505Z,1019.41
2022-12-18T05:26:22.379Z,1019.49
2022-12-18T05:27:22.403Z,1019.46
2022-12-18T05:28:22.385Z,1019.47
2022-12-18T05:29:22.346Z,1019.47
2022-12-18T05:30:22.332Z,1019.49
2022-12-18T05:31:22.373Z,1019.56
2022-12-18T05:32:22.311Z,1019.55
2022-12-18T05:33:22.341Z,1019.61
2022-12-18T05:34:22.346Z,1019.60
2022-12-18T05:35:22.287Z,1019.59
2022-12-18T05:36:22.270Z,1019.68
2022-12-18T05:37:22.267Z,1019.60
2022-12-18T05:38:22.249Z,1019.61
2022-12-18T05:39:22.276Z,1019.63
2022-12-18T05:40:22.257Z,1019.57
2022-12-18T05:41:22.337Z,1019.57
2022-12-18T05:42:22.209Z,1019.65
2022-12-18T05:43:22.200Z,1019.61
2022-12-18T05:44:22.185Z,1019.67
2022-12-18T05:45:22.194Z,1019.74
2022-12-18T05:46:22.225Z,1019.82
2022-12-18T05:47:22.154Z,1019.77
2022-12-18T05:48:22.144Z,1019.70
2022-12-18T05:49:22.160Z,1019.77
2022-12-18T05:50:22.123Z,1019.72
2022-12-18T05:51:22.116Z,1019.76
2022-12-18T05:52:22.132Z,1019.79
2022-12-18T05:53:22.092Z,1019.70
2022-12-18T05:54:22.080Z,1019.82
2022-12-18T05:55:22.105Z,1019.81
2022-12-18T05:56:22.070Z,1019.84
2022-12-18T05:57:22.202Z,1019.88
2022-12-18T05:58:22.070Z,1019.89
2022-12-18T05:59:22.066Z,1019.83
2022-12-18T06:00:22.035Z,1019.84
2022-12-18T06:01:22.059Z,1019.89
2022-12-18T06:02:22.259Z,1019.81
2022-12-18T06:03:22.120Z,1019.89
2022-12-18T06:04:21.986Z,1019.89
2022-12-18T06:05:21.992Z,1019.86
2022-12-18T06:06:21.952Z,1019.86
2022-12-18T06:07:21.970Z,1019.94
2022-12-18T06:08:21.933Z,1019.93
2022-12-18T06:09:21.927Z,1019.95
2022-12-18T06:10:21.919Z,1019.92
2022-12-18T06:11:21.953Z,1019.92
2022-12-18T06:12:21.890Z,1019.95
2022-12-18T06:13:22.060Z,1019.90
2022-12-18T06:14:21.871Z,1019.92
2022-12-18T06:15:21.864Z,1019.91
2022-12-18T06:16:21.895Z,1019.90
2022-12-18T06:17:21.843Z,1019.95
2022-12-18T06:18:21.827Z,1019.96
2022-12-18T06:19:21.835Z,1020.00
2022-12-18T06:20:21.806Z,1019.98
2022-12-18T06:21:21.801Z,1019.95
2022-12-18T06:22:21.809Z,1020.02
2022-12-18T06:23:21.805Z,1020.04
2022-12-18T06:24:21.763Z,1019.99
2022-12-18T06:25:21.761Z,1020.00
2022-12-18T06:26:27.575Z,1020.06
2022-12-18T06:27:21.738Z,1020.04
2022-12-18T06:28:21.764Z,1020.02
2022-12-18T06:29:21.827Z,1020.01
2022-12-18T06:30:21.708Z,1020.02
2022-12-18T06:31:21.804Z,1019.98
2022-12-18T06:32:21.716Z,1020.01
2022-12-18T06:33:21.674Z,1020.00
2022-12-18T06:34:21.674Z,1019.98
2022-12-18T06:35:21.648Z,1020.02
2022-12-18T06:36:21.636Z,1020.10
2022-12-18T06:37:21.636Z,1020.05
2022-12-18T06:38:21.651Z,1020.06
2022-12-18T06:39:21.634Z,1020.10
2022-12-18T06:40:21.613Z,1020.10
2022-12-18T06:41:21.590Z,1020.12
2022-12-18T06:42:21.575Z,1020.03
2022-12-18T06:43:21.571Z,1020.06
2022-12-18T06:44:21.576Z,1020.04
2022-12-18T06:45:21.660Z,1020.03
2022-12-18T06:46:21.591Z,1020.10
2022-12-18T06:47:21.557Z,1020.09
2022-12-18T06:48:21.535Z,1020.06
2022-12-18T06:49:22.245Z,1020.01
2022-12-18T06:50:21.491Z,1020.09
2022-12-18T06:51:21.486Z,1020.03
2022-12-18T06:52:21.483Z,1020.05
2022-12-18T06:53:21.488Z,1020.10
2022-12-18T06:54:21.501Z,1020.13
2022-12-18T06:55:21.448Z,1020.13
2022-12-18T06:56:21.428Z,1020.13
2022-12-18T06:57:21.422Z,1020.11
2022-12-18T06:58:21.425Z,1020.08
2022-12-18T06:59:21.408Z,1020.16
2022-12-18T07:00:21.408Z,1020.08
2022-12-18T07:01:21.730Z,1020.09
2022-12-18T07:02:21.504Z,1020.09
2022-12-18T07:03:21.360Z,1019.99
2022-12-18T07:04:21.369Z,1020.00
2022-12-18T07:05:21.347Z,1020.07
2022-12-18T07:06:21.329Z,1020.06
2022-12-18T07:07:21.321Z,1020.11
2022-12-18T07:08:21.344Z,1020.02
2022-12-18T07:09:21.299Z,1020.01
2022-12-18T07:10:21.295Z,1020.05
2022-12-18T07:11:21.273Z,1020.01
2022-12-18T07:12:21.273Z,1020.05
2022-12-18T07:13:21.257Z,1020.03
2022-12-18T07:14:21.266Z,1020.06
2022-12-18T07:15:21.255Z,1020.04
2022-12-18T07:16:25.267Z,1020.09
2022-12-18T07:17:21.353Z,1020.14
2022-12-18T07:18:21.209Z,1020.11
2022-12-18T07:19:21.212Z,1020.09
2022-12-18T07:20:21.176Z,1020.20
2022-12-18T07:21:21.172Z,1020.15
2022-12-18T07:22:21.178Z,1020.14
2022-12-18T07:23:21.145Z,1020.18
2022-12-18T07:24:21.147Z,1020.12
2022-12-18T07:25:21.132Z,1020.12
2022-12-18T07:26:21.112Z,1020.18
2022-12-18T07:27:21.128Z,1020.18
2022-12-18T07:28:21.104Z,1020.12
2022-12-18T07:29:21.121Z,1020.13
2022-12-18T07:30:21.080Z,1020.19
2022-12-18T07:31:21.566Z,1020.28
2022-12-18T07:32:21.051Z,1020.16
2022-12-18T07:33:21.161Z,1020.17
2022-12-18T07:34:21.052Z,1020.23
2022-12-18T07:35:24.962Z,1020.20
2022-12-18T07:36:21.015Z,1020.21
2022-12-18T07:37:21.013Z,1020.19
2022-12-18T07:38:21.033Z,1020.19
2022-12-18T07:39:20.982Z,1020.21
2022-12-18T07:40:21.097Z,1020.26
2022-12-18T07:41:20.971Z,1020.34
2022-12-18T07:42:20.956Z,1020.31
2022-12-18T07:43:20.952Z,1020.27
2022-12-18T07:44:20.949Z,1020.34
2022-12-18T07:45:20.919Z,1020.39
2022-12-18T07:46:20.980Z,1020.31
2022-12-18T07:47:20.895Z,1020.37
2022-12-18T07:48:20.889Z,1020.37
2022-12-18T07:49:21.014Z,1020.47
2022-12-18T07:50:20.883Z,1020.49
2022-12-18T07:51:20.858Z,1020.52
2022-12-18T07:52:25.731Z,1020.51
2022-12-18T07:53:20.869Z,1020.48
2022-12-18T07:54:20.837Z,1020.56
2022-12-18T07:55:20.814Z,1020.53
2022-12-18T07:56:29.639Z,1020.46
2022-12-18T07:57:48.971Z,1020.46
2022-12-18T07:58:20.793Z,1020.51
2022-12-18T07:59:20.794Z,1020.48
2022-12-18T08:00:20.771Z,1020.55
2022-12-18T08:01:21.374Z,1020.58
2022-12-18T08:02:20.962Z,1020.55
2022-12-18T08:03:20.784Z,1020.56
2022-12-18T08:04:20.739Z,1020.61
2022-12-18T08:05:20.817Z,1020.55
2022-12-18T08:06:21.289Z,1020.54
2022-12-18T08:07:20.697Z,1020.61
2022-12-18T08:08:20.699Z,1020.53
2022-12-18T08:09:20.667Z,1020.53
2022-12-18T08:10:20.659Z,1020.52
2022-12-18T08:11:20.640Z,1020.52
2022-12-18T08:12:20.637Z,1020.53
2022-12-18T08:13:20.645Z,1020.52
2022-12-18T08:14:20.608Z,1020.53
2022-12-18T08:15:20.604Z,1020.52
2022-12-18T08:16:20.779Z,1020.59
2022-12-18T08:17:20.645Z,1020.56
2022-12-18T08:18:20.613Z,1020.55
2022-12-18T08:19:20.562Z,1020.54
2022-12-18T08:20:20.549Z,1020.65
2022-12-18T08:21:26.494Z,1020.64
2022-12-18T08:22:21.642Z,1020.65
2022-12-18T08:23:20.554Z,1020.73
2022-12-18T08:24:20.513Z,1020.69
2022-12-18T08:25:20.498Z,1020.74
2022-12-18T08:26:20.991Z,1020.74
2022-12-18T08:27:29.521Z,1020.80
2022-12-18T08:28:21.505Z,1020.82
2022-12-18T08:29:21.767Z,1020.72
2022-12-18T08:30:20.446Z,1020.78
2022-12-18T08:31:27.002Z,1020.77
2022-12-18T08:32:20.483Z,1020.81
2022-12-18T08:33:20.417Z,1020.86
2022-12-18T08:34:20.429Z,1020.89
2022-12-18T08:35:20.389Z,1020.91
2022-12-18T08:36:20.391Z,1020.92
2022-12-18T08:37:20.372Z,1020.91
2022-12-18T08:38:20.470Z,1020.82
2022-12-18T08:39:20.367Z,1020.80
2022-12-18T08:40:20.347Z,1020.83
2022-12-18T08:41:20.354Z,1020.70
2022-12-18T08:42:20.325Z,1020.76
2022-12-18T08:43:20.324Z,1020.77
2022-12-18T08:44:20.293Z,1020.75
2022-12-18T08:45:20.295Z,1020.80
2022-12-18T08:46:20.380Z,1020.78
2022-12-18T08:47:20.261Z,1020.79
2022-12-18T08:48:22.273Z,1020.77
2022-12-18T08:49:20.270Z,1020.76
2022-12-18T08:50:20.234Z,1020.83
2022-12-18T08:51:20.225Z,1020.84
2022-12-18T08:52:20.225Z,1020.91
2022-12-18T08:53:20.202Z,1020.85
2022-12-18T08:54:20.326Z,1020.88
2022-12-18T08:55:20.200Z,1020.88
2022-12-18T08:56:20.169Z,1020.88
2022-12-18T08:57:20.163Z,1020.87
2022-12-18T08:58:20.156Z,1020.84
2022-12-18T08:59:20.281Z,1020.90
2022-12-18T09:00:20.185Z,1020.83
2022-12-18T09:01:20.227Z,1020.90
2022-12-18T09:02:20.327Z,1020.93
2022-12-18T09:03:20.233Z,1020.96
2022-12-18T09:04:20.097Z,1020.94
2022-12-18T09:05:20.115Z,1021.03
2022-12-18T09:06:20.079Z,1020.98
2022-12-18T09:07:20.060Z,1021.03
2022-12-18T09:08:20.045Z,1021.07
2022-12-18T09:09:20.043Z,1021.08
2022-12-18T09:10:20.138Z,1021.00
2022-12-18T09:11:20.040Z,1020.97
2022-12-18T09:12:20.049Z,1020.97
2022-12-18T09:13:20.002Z,1021.02
2022-12-18T09:14:19.982Z,1020.99
2022-12-18T09:15:19.974Z,1020.99
2022-12-18T09:16:19.993Z,1020.90
2022-12-18T09:17:19.989Z,1020.92
2022-12-18T09:18:19.949Z,1020.93
2022-12-18T09:19:19.951Z,1020.95
2022-12-18T09:20:19.951Z,1020.99
2022-12-18T09:21:19.912Z,1020.92
2022-12-18T09:22:19.909Z,1020.94
2022-12-18T09:23:19.887Z,1020.93
2022-12-18T09:24:19.923Z,1020.83
2022-12-18T09:25:19.883Z,1020.86
2022-12-18T09:26:19.975Z,1020.88
2022-12-18T09:27:19.852Z,1020.79
2022-12-18T09:28:19.841Z,1020.79
2022-12-18T09:29:19.861Z,1020.80
2022-12-18T09:30:19.820Z,1020.78
2022-12-18T09:31:19.858Z,1020.80
2022-12-18T09:32:22.448Z,1020.82
2022-12-18T09:33:19.786Z,1020.75
2022-12-18T09:34:19.797Z,1020.76
2022-12-18T09:35:19.795Z,1020.73
2022-12-18T09:36:19.754Z,1020.78
2022-12-18T09:37:19.742Z,1020.81
2022-12-18T09:38:19.766Z,1020.74
2022-12-18T09:39:22.223Z,1020.71
2022-12-18T09:40:19.734Z,1020.73
2022-12-18T09:41:19.695Z,1020.67
2022-12-18T09:42:19.822Z,1020.63
2022-12-18T09:43:19.682Z,1020.53
2022-12-18T09:44:19.736Z,1020.59
2022-12-18T09:45:19.662Z,1020.48
2022-12-18T09:46:19.693Z,1020.51
2022-12-18T09:47:19.713Z,1020.51
2022-12-18T09:48:19.625Z,1020.49
2022-12-18T09:49:19.619Z,1020.44
2022-12-18T09:50:19.600Z,1020.46
2022-12-18T09:51:19.592Z,1020.42
2022-12-18T09:52:19.665Z,1020.43
2022-12-18T09:53:19.570Z,1020.46
2022-12-18T09:54:19.557Z,1020.45
2022-12-18T09:55:19.546Z,1020.34
2022-12-18T09:56:19.536Z,1020.34
2022-12-18T09:57:19.526Z,1020.38
2022-12-18T09:58:19.666Z,1020.33
2022-12-18T09:59:19.509Z,1020.36
2022-12-18T10:00:19.528Z,1020.30
2022-12-18T10:01:19.659Z,1020.34
2022-12-18T10:02:19.575Z,1020.28
2022-12-18T10:03:19.485Z,1020.34
2022-12-18T10:04:19.551Z,1020.32
2022-12-18T10:05:19.457Z,1020.35
2022-12-18T10:06:19.436Z,1020.28
2022-12-18T10:07:19.418Z,1020.23
2022-12-18T10:08:19.441Z,1020.28
2022-12-18T10:09:19.428Z,1020.27
2022-12-18T10:10:19.435Z,1020.27
2022-12-18T10:11:19.374Z,1020.18
2022-12-18T10:12:19.364Z,1020.17
2022-12-18T10:13:19.383Z,1020.19
2022-12-18T10:14:19.463Z,1020.12
2022-12-18T10:15:19.339Z,1020.11
2022-12-18T10:16:19.437Z,1020.13
2022-12-18T10:17:19.309Z,1020.16
2022-12-18T10:18:22.132Z,1020.11
2022-12-18T10:19:19.290Z,1020.09
2022-12-18T10:20:19.313Z,1020.09
2022-12-18T10:21:19.273Z,1020.03
2022-12-18T10:22:19.289Z,1020.05
2022-12-18T10:23:19.245Z,1020.12
2022-12-18T10:24:19.275Z,1020.07
2022-12-18T10:25:19.223Z,1020.04
2022-12-18T10:26:19.214Z,1020.02
2022-12-18T10:27:19.242Z,1020.03
2022-12-18T10:28:19.215Z,1020.01
2022-12-18T10:29:19.182Z,1019.98
2022-12-18T10:30:19.390Z,1019.89
2022-12-18T10:31:19.266Z,1019.92
2022-12-18T10:32:19.150Z,1020.00
2022-12-18T10:33:19.157Z,1019.96
2022-12-18T10:34:19.175Z,1020.06
2022-12-18T10:35:19.151Z,1020.07
2022-12-18T10:36:19.109Z,1020.06
2022-12-18T10:37:19.097Z,1020.06
2022-12-18T10:38:19.088Z,1020.04
2022-12-18T10:39:19.092Z,1020.01
2022-12-18T10:40:22.657Z,1019.97
2022-12-18T10:41:19.053Z,1019.98
2022-12-18T10:42:19.049Z,1019.92
2022-12-18T10:43:19.033Z,1019.98
2022-12-18T10:44:19.030Z,1020.04
2022-12-18T10:45:19.037Z,1020.04
2022-12-18T10:46:19.199Z,1019.94
2022-12-18T10:47:18.996Z,1020.03
2022-12-18T10:48:18.986Z,1020.02
2022-12-18T10:49:18.968Z,1020.01
2022-12-18T10:50:19.046Z,1020.00
2022-12-18T10:51:18.969Z,1019.89
2022-12-18T10:52:18.979Z,1019.89
2022-12-18T10:53:18.929Z,1019.82
2022-12-18T10:54:18.935Z,1019.84
2022-12-18T10:55:18.904Z,1019.85
2022-12-18T10:56:18.898Z,1019.86
2022-12-18T10:57:18.892Z,1019.84
2022-12-18T10:58:22.211Z,1019.84
2022-12-18T10:59:19.882Z,1019.78
2022-12-18T11:00:18.866Z,1019.85
2022-12-18T11:01:18.924Z,1019.82
2022-12-18T11:02:19.063Z,1019.83
2022-12-18T11:03:18.914Z,1019.83
2022-12-18T11:04:18.816Z,1019.84
2022-12-18T11:05:18.798Z,1019.90
2022-12-18T11:06:18.796Z,1019.87
2022-12-18T11:07:18.811Z,1019.86
2022-12-18T11:08:18.777Z,1019.81
2022-12-18T11:09:18.773Z,1019.88
2022-12-18T11:10:18.748Z,1019.87
2022-12-18T11:11:18.734Z,1019.89
2022-12-18T11:12:18.737Z,1019.87
2022-12-18T11:13:18.745Z,1019.94
2022-12-18T11:14:18.717Z,1019.82
2022-12-18T11:15:18.719Z,1019.87
2022-12-18T11:16:18.734Z,1019.80
2022-12-18T11:17:26.868Z,1019.79
2022-12-18T11:18:19.779Z,1019.85
2022-12-18T11:19:18.651Z,1019.93
2022-12-18T11:20:18.693Z,1019.92
2022-12-18T11:21:18.647Z,1019.96
2022-12-18T11:22:18.617Z,1019.96
2022-12-18T11:23:18.662Z,1019.95
2022-12-18T11:24:18.606Z,1019.95
2022-12-18T11:25:35.664Z,1019.94
2022-12-18T11:26:19.617Z,1019.94
2022-12-18T11:27:18.565Z,1019.94
2022-12-18T11:28:18.584Z,1019.98
2022-12-18T11:29:18.547Z,1019.90
2022-12-18T11:30:18.558Z,1019.95
2022-12-18T11:31:18.633Z,1019.97
2022-12-18T11:32:18.539Z,1019.91
2022-12-18T11:33:18.499Z,1019.95
2022-12-18T11:34:33.983Z,1019.98
2022-12-18T11:35:19.479Z,1019.98
2022-12-18T11:36:18.479Z,1019.94
2022-12-18T11:37:18.552Z,1019.93
2022-12-18T11:38:18.457Z,1020.02
2022-12-18T11:39:18.567Z,1020.03
2022-12-18T11:40:18.430Z,1020.04
2022-12-18T11:41:18.414Z,1020.13
2022-12-18T11:42:18.406Z,1020.12
2022-12-18T11:43:18.431Z,1020.11
2022-12-18T11:44:18.403Z,1020.07
2022-12-18T11:45:18.402Z,1020.14
2022-12-18T11:46:20.118Z,1020.08
2022-12-18T11:47:18.350Z,1020.16
2022-12-18T11:48:18.343Z,1020.11
2022-12-18T11:49:18.330Z,1019.99
2022-12-18T11:50:18.489Z,1019.98
2022-12-18T11:51:18.310Z,1020.08
2022-12-18T11:52:18.299Z,1020.04
2022-12-18T11:53:18.320Z,1020.06
2022-12-18T11:54:18.276Z,1020.04
2022-12-18T11:55:18.266Z,1020.02
2022-12-18T11:56:18.264Z,1020.02
2022-12-18T11:57:18.354Z,1020.05
2022-12-18T11:58:18.282Z,1019.93
2022-12-18T11:59:18.226Z,1019.91
2022-12-18T12:00:18.242Z,1019.93
2022-12-18T12:01:18.322Z,1019.87
2022-12-18T12:02:18.329Z,1019.88
2022-12-18T12:03:18.262Z,1019.83
2022-12-18T12:04:18.181Z,1019.84
2022-12-18T12:05:18.157Z,1019.88